Time;durP1;ratioP1;P1;durP2;ratioP2;P2;SDS_P1;SDS_P2;PMS_P1;PMS_P2;Temp;Humidity;BMP_temperature;BMP_pressure;BME280_temperature;BME280_humidity;BME280_pressure;Samples;Min_cycle;Max_cycle;Signal;HPM_P1;HPM_P2
2023/11/06 00:00:17;;;;;;;8.68;2.20;;;6.80;99.90;;;;;;5078012;28;20055;-84
2023/11/06 00:03:06;;;;;;;6.35;2.30;;;6.80;99.90;;;;;;5069361;28;20048;-84
2023/11/06 00:05:54;;;;;;;9.18;2.40;;;6.90;99.90;;;;;;5064347;28;20048;-84
2023/11/06 00:08:41;;;;;;;7.55;2.40;;;6.90;99.90;;;;;;5062152;28;20040;-85
2023/11/06 00:11:29;;;;;;;7.63;2.40;;;6.90;99.90;;;;;;5065455;28;20522;-85
2023/11/06 00:14:16;;;;;;;9.85;2.40;;;7.00;99.90;;;;;;5062737;28;20060;-85
2023/11/06 00:17:03;;;;;;;10.57;2.22;;;6.90;99.90;;;;;;5056959;28;20059;-85
2023/11/06 00:19:50;;;;;;;10.77;2.13;;;7.00;99.90;;;;;;5059079;28;20086;-82
2023/11/06 00:22:38;;;;;;;6.93;2.28;;;7.00;99.90;;;;;;5053803;28;20453;-83
2023/11/06 00:25:26;;;;;;;9.25;2.72;;;6.90;99.90;;;;;;5058828;28;20116;-85
2023/11/06 00:28:13;;;;;;;6.57;2.20;;;6.90;99.90;;;;;;5058992;28;20041;-84
2023/11/06 00:31:00;;;;;;;3.95;1.70;;;6.90;99.90;;;;;;5065545;28;20059;-83
2023/11/06 00:33:53;;;;;;;9.88;2.40;;;6.90;99.90;;;;;;5066014;28;20044;-85
2023/11/06 00:36:44;;;;;;;6.10;2.33;;;6.90;99.90;;;;;;5077934;28;20866;-85
2023/11/06 00:39:35;;;;;;;7.97;2.40;;;7.00;99.90;;;;;;5067116;28;20048;-84
2023/11/06 00:42:24;;;;;;;8.45;1.90;;;7.00;99.90;;;;;;5064601;28;20060;-80
2023/11/06 00:45:11;;;;;;;8.90;2.10;;;7.00;99.90;;;;;;5064648;28;20141;-85
2023/11/06 00:48:01;;;;;;;6.32;2.10;;;7.00;99.90;;;;;;5055555;28;20037;-84
2023/11/06 00:50:48;;;;;;;14.60;2.47;;;7.00;99.90;;;;;;5063373;28;20033;-84
2023/11/06 00:53:40;;;;;;;7.97;2.30;;;7.00;99.90;;;;;;5066528;28;20380;-84
2023/11/06 00:56:28;;;;;;;12.65;2.28;;;7.00;99.90;;;;;;5061335;28;20334;-81
2023/11/06 00:59:16;;;;;;;8.70;2.00;;;7.00;99.90;;;;;;5075391;28;20062;-86
2023/11/06 01:02:04;;;;;;;6.03;2.45;;;7.00;99.90;;;;;;5053209;28;20060;-83
2023/11/06 01:04:51;;;;;;;6.57;1.80;;;7.00;99.90;;;;;;5054680;28;20084;-82
2023/11/06 01:07:38;;;;;;;5.82;1.90;;;7.00;99.90;;;;;;5073184;28;20072;-85
2023/11/06 01:10:25;;;;;;;9.32;2.75;;;7.10;99.90;;;;;;5059781;28;20374;-83
2023/11/06 01:13:15;;;;;;;10.95;2.20;;;7.20;99.90;;;;;;5071982;28;20495;-84
2023/11/06 01:16:03;;;;;;;11.77;2.45;;;7.20;99.90;;;;;;5064477;28;20464;-84
2023/11/06 01:18:52;;;;;;;7.53;1.70;;;7.30;99.90;;;;;;5068023;28;20075;-83
2023/11/06 01:21:40;;;;;;;11.77;2.20;;;7.30;99.90;;;;;;5091460;28;20495;-79
2023/11/06 01:24:27;;;;;;;7.80;2.05;;;7.30;99.90;;;;;;5062104;28;20041;-85
2023/11/06 01:27:18;;;;;;;6.75;1.80;;;7.30;99.90;;;;;;5066615;28;20045;-77
2023/11/06 01:30:07;;;;;;;7.90;1.77;;;7.40;99.90;;;;;;5061456;28;20365;-82
2023/11/06 01:32:54;;;;;;;10.77;1.70;;;7.30;99.90;;;;;;5069070;28;20060;-84
2023/11/06 01:35:41;;;;;;;7.13;1.75;;;7.20;99.90;;;;;;5059603;28;20051;-84
2023/11/06 01:38:31;;;;;;;8.15;1.60;;;7.20;99.90;;;;;;5073791;28;20457;-81
2023/11/06 01:41:18;;;;;;;9.52;2.10;;;7.20;99.90;;;;;;5068208;28;20064;-85
2023/11/06 01:44:08;;;;;;;10.55;2.05;;;7.10;99.90;;;;;;5066624;28;20345;-84
2023/11/06 01:46:56;;;;;;;7.07;1.70;;;7.10;99.90;;;;;;5063745;28;20044;-85
2023/11/06 01:49:46;;;;;;;6.90;1.67;;;7.10;99.90;;;;;;5070994;28;20059;-80
2023/11/06 01:52:34;;;;;;;9.85;1.65;;;7.10;99.90;;;;;;5073787;28;20127;-83
2023/11/06 01:55:27;;;;;;;4.03;1.58;;;7.20;99.90;;;;;;5067262;28;20141;-86
2023/11/06 01:58:17;;;;;;;6.82;1.33;;;7.20;99.90;;;;;;5055411;28;20182;-83
2023/11/06 02:01:05;;;;;;;4.63;1.45;;;7.10;99.90;;;;;;5060702;28;20044;-79
2023/11/06 02:03:53;;;;;;;4.00;1.25;;;7.20;99.90;;;;;;5070602;28;20048;-86
2023/11/06 02:06:48;;;;;;;6.03;1.55;;;7.30;99.90;;;;;;5071947;28;20052;-86
2023/11/06 02:09:35;;;;;;;2.08;1.00;;;7.30;99.90;;;;;;5077239;28;20048;-81
2023/11/06 02:12:22;;;;;;;5.20;1.40;;;7.30;99.90;;;;;;5061202;28;20044;-85
2023/11/06 02:15:14;;;;;;;5.32;1.35;;;7.30;99.90;;;;;;5067646;28;20045;-85
2023/11/06 02:18:01;;;;;;;2.40;1.27;;;7.30;99.90;;;;;;5051895;28;20045;-86
2023/11/06 02:20:55;;;;;;;6.65;1.20;;;7.30;99.90;;;;;;5062518;28;20044;-86
2023/11/06 02:23:43;;;;;;;1.33;1.00;;;7.20;99.90;;;;;;5059907;28;20041;-83
2023/11/06 02:26:30;;;;;;;6.78;1.60;;;7.20;99.90;;;;;;5066656;28;20048;-85
2023/11/06 02:29:19;;;;;;;2.30;1.27;;;7.20;99.90;;;;;;5054499;28;20068;-85
2023/11/06 02:32:09;;;;;;;2.92;1.30;;;7.10;99.90;;;;;;5072174;28;20052;-85
2023/11/06 02:34:57;;;;;;;6.22;1.33;;;7.10;99.90;;;;;;5058508;28;20068;-84
2023/11/06 02:37:44;;;;;;;5.65;1.48;;;7.00;99.90;;;;;;5059869;28;20045;-86
2023/11/06 02:40:31;;;;;;;4.20;1.70;;;7.00;99.90;;;;;;5078005;28;20059;-84
2023/11/06 02:43:21;;;;;;;4.68;1.40;;;7.00;99.90;;;;;;5071200;28;20041;-85
2023/11/06 02:46:13;;;;;;;6.05;1.63;;;7.00;99.90;;;;;;5069947;28;20051;-86
2023/11/06 02:49:01;;;;;;;4.70;1.52;;;7.00;99.90;;;;;;5055949;28;20056;-83
2023/11/06 02:51:48;;;;;;;6.22;1.58;;;6.90;99.90;;;;;;5065564;28;20106;-86
2023/11/06 02:54:35;;;;;;;2.85;1.42;;;7.00;99.90;;;;;;5071136;28;20044;-84
2023/11/06 02:57:23;;;;;;;3.95;1.30;;;7.00;99.90;;;;;;5077792;28;20483;-79
2023/11/06 03:00:11;;;;;;;7.05;1.88;;;7.00;99.90;;;;;;5062979;28;20040;-85
2023/11/06 03:02:59;;;;;;;7.47;1.70;;;7.00;99.90;;;;;;5055055;28;20048;-85
2023/11/06 03:05:46;;;;;;;5.95;1.42;;;7.00;99.90;;;;;;5079379;28;20049;-85
2023/11/06 03:08:34;;;;;;;6.45;1.42;;;7.00;99.90;;;;;;5072330;28;20498;-85
2023/11/06 03:11:22;;;;;;;5.07;1.20;;;7.00;99.90;;;;;;5078819;28;20051;-85
2023/11/06 03:14:09;;;;;;;4.78;1.73;;;7.00;99.90;;;;;;5071343;28;20055;-84
2023/11/06 03:17:01;;;;;;;8.57;1.40;;;7.00;99.90;;;;;;5063611;28;20058;-86
2023/11/06 03:19:50;;;;;;;3.90;1.38;;;7.00;99.90;;;;;;5070526;28;20133;-84
2023/11/06 03:22:37;;;;;;;7.75;1.50;;;7.00;99.90;;;;;;5068336;28;20165;-84
2023/11/06 03:25:27;;;;;;;4.90;1.73;;;7.10;99.90;;;;;;5070049;28;20045;-84
2023/11/06 03:28:14;;;;;;;9.75;2.00;;;7.10;99.90;;;;;;5067396;28;20358;-84
2023/11/06 03:31:02;;;;;;;6.18;1.83;;;7.10;99.90;;;;;;5057087;28;20044;-84
2023/11/06 03:33:50;;;;;;;5.18;1.55;;;7.10;99.90;;;;;;5072507;28;20044;-85
2023/11/06 03:36:41;;;;;;;7.28;1.40;;;7.20;99.90;;;;;;5081420;28;20047;-80
2023/11/06 03:39:30;;;;;;;7.70;1.63;;;7.30;99.90;;;;;;5083840;28;20044;-85
2023/11/06 03:42:18;;;;;;;9.90;1.30;;;7.20;99.90;;;;;;5059247;28;20048;-85
2023/11/06 03:45:05;;;;;;;4.80;1.30;;;7.10;99.90;;;;;;5068427;28;20052;-85
2023/11/06 03:47:52;;;;;;;10.10;1.73;;;7.10;99.90;;;;;;5087469;28;20045;-83
2023/11/06 03:50:45;;;;;;;3.13;1.55;;;7.20;99.90;;;;;;5087281;28;20049;-76
2023/11/06 03:53:32;;;;;;;4.38;1.05;;;7.20;99.90;;;;;;5075799;28;20184;-82
2023/11/06 03:56:19;;;;;;;6.95;1.60;;;7.10;99.90;;;;;;5073847;28;20053;-81
2023/11/06 03:59:06;;;;;;;5.68;1.42;;;7.10;99.90;;;;;;5085906;28;20053;-84
2023/11/06 04:01:54;;;;;;;8.48;1.60;;;7.10;99.90;;;;;;5064469;28;20358;-84
2023/11/06 04:04:41;;;;;;;4.70;1.20;;;7.10;99.90;;;;;;5073662;28;20052;-83
2023/11/06 04:07:28;;;;;;;4.43;1.33;;;7.10;99.90;;;;;;5095441;28;20044;-87
2023/11/06 04:10:16;;;;;;;7.60;1.30;;;7.10;99.90;;;;;;5047526;28;20037;-84
2023/11/06 04:13:03;;;;;;;8.02;1.60;;;7.00;99.90;;;;;;5070533;28;20130;-77
2023/11/06 04:15:50;;;;;;;7.20;1.38;;;7.00;99.90;;;;;;5069620;28;20040;-83
2023/11/06 04:18:40;;;;;;;9.57;1.83;;;6.90;99.90;;;;;;5064301;28;20049;-83
2023/11/06 04:21:27;;;;;;;7.50;1.67;;;6.80;99.90;;;;;;5051352;28;20044;-78
2023/11/06 04:24:16;;;;;;;8.57;1.70;;;6.70;99.90;;;;;;5061678;28;20045;-81
2023/11/06 04:27:04;;;;;;;9.30;1.70;;;6.70;99.90;;;;;;5064904;28;20040;-83
2023/11/06 04:29:51;;;;;;;6.13;1.83;;;6.70;99.90;;;;;;5068933;28;20111;-82
2023/11/06 04:32:38;;;;;;;7.53;1.85;;;6.70;99.90;;;;;;5062311;28;20120;-84
2023/11/06 04:35:27;;;;;;;6.35;1.30;;;6.70;99.90;;;;;;5052658;28;20055;-83
2023/11/06 04:38:14;;;;;;;8.93;1.90;;;6.60;99.90;;;;;;5067763;28;20130;-83
2023/11/06 04:41:01;;;;;;;5.82;1.92;;;6.60;99.90;;;;;;5057782;28;20091;-84
2023/11/06 04:43:49;;;;;;;6.88;1.50;;;6.60;99.90;;;;;;5062738;28;20341;-84
2023/11/06 04:46:37;;;;;;;3.45;1.40;;;6.60;99.90;;;;;;5070366;28;20117;-84
2023/11/06 04:49:26;;;;;;;11.45;1.90;;;6.60;99.90;;;;;;5073321;28;20071;-80
2023/11/06 04:52:16;;;;;;;6.20;1.50;;;6.70;99.90;;;;;;5069291;28;20040;-84
2023/11/06 04:55:06;;;;;;;6.15;1.50;;;6.70;99.90;;;;;;5066913;28;20050;-84
2023/11/06 04:57:54;;;;;;;2.80;1.40;;;6.80;99.90;;;;;;5071813;28;20049;-85
2023/11/06 05:00:41;;;;;;;5.80;1.30;;;7.00;99.90;;;;;;5065056;28;20048;-79
2023/11/06 05:03:29;;;;;;;13.43;1.92;;;7.10;99.90;;;;;;5061265;28;20045;-80
2023/11/06 05:06:16;;;;;;;5.90;1.63;;;7.10;99.90;;;;;;5058961;28;20045;-85
2023/11/06 05:09:06;;;;;;;2.50;1.02;;;7.20;99.90;;;;;;5076522;28;20117;-85
2023/11/06 05:11:54;;;;;;;3.70;1.30;;;7.30;99.90;;;;;;5084465;28;20129;-83
2023/11/06 05:14:41;;;;;;;2.95;1.10;;;7.30;99.90;;;;;;5073903;28;20052;-86
2023/11/06 05:17:28;;;;;;;4.07;1.30;;;7.40;99.90;;;;;;5056696;28;20063;-86
2023/11/06 05:20:16;;;;;;;6.82;1.63;;;7.40;99.90;;;;;;5059628;28;20078;-84
2023/11/06 05:23:06;;;;;;;2.60;1.20;;;7.40;99.90;;;;;;5074875;28;20086;-86
2023/11/06 05:25:55;;;;;;;4.07;1.63;;;7.40;99.90;;;;;;5060852;28;20111;-83
2023/11/06 05:28:43;;;;;;;7.53;1.40;;;7.40;99.90;;;;;;5072521;28;20040;-86
2023/11/06 05:31:32;;;;;;;4.68;1.55;;;7.30;99.90;;;;;;5073915;28;20051;-85
2023/11/06 05:34:22;;;;;;;2.63;1.38;;;7.30;99.90;;;;;;5061603;28;20735;-84
2023/11/06 05:37:09;;;;;;;2.85;1.30;;;7.20;99.90;;;;;;5068688;28;20187;-85
2023/11/06 05:39:57;;;;;;;4.78;1.33;;;7.10;99.90;;;;;;5060010;28;20048;-78
2023/11/06 05:42:44;;;;;;;4.80;1.60;;;7.00;99.90;;;;;;5067976;28;20276;-84
2023/11/06 05:45:31;;;;;;;5.85;1.60;;;7.00;99.90;;;;;;5057661;28;20044;-83
2023/11/06 05:48:20;;;;;;;4.00;1.33;;;7.00;99.90;;;;;;5067890;28;20682;-85
2023/11/06 05:51:07;;;;;;;4.15;1.23;;;6.90;99.90;;;;;;5066039;28;20045;-86
2023/11/06 05:53:54;;;;;;;4.72;1.35;;;6.90;99.90;;;;;;5070567;28;20049;-86
2023/11/06 05:56:42;;;;;;;2.47;1.42;;;6.90;99.90;;;;;;5071683;28;20125;-86
2023/11/06 05:59:29;;;;;;;2.75;1.20;;;6.90;99.90;;;;;;5063682;28;20048;-86
2023/11/06 06:02:16;;;;;;;3.55;1.10;;;6.90;99.90;;;;;;5057024;28;20041;-86
2023/11/06 06:05:07;;;;;;;5.85;1.20;;;6.80;99.90;;;;;;5070254;28;20102;-84
2023/11/06 06:07:54;;;;;;;4.97;1.52;;;6.80;99.90;;;;;;5067572;28;20114;-86
2023/11/06 06:10:42;;;;;;;2.10;1.30;;;6.70;99.90;;;;;;5057339;28;20174;-88
2023/11/06 06:13:31;;;;;;;6.70;2.90;;;6.60;99.90;;;;;;5071197;28;20048;-86
2023/11/06 06:16:21;;;;;;;15.88;6.82;;;6.60;99.90;;;;;;5053914;28;20044;-86
2023/11/06 06:19:09;;;;;;;2.63;1.10;;;6.50;99.90;;;;;;5071723;28;20050;-85
2023/11/06 06:21:56;;;;;;;3.20;1.30;;;6.50;99.90;;;;;;5069879;28;20052;-85
2023/11/06 06:24:45;;;;;;;6.68;1.60;;;6.50;99.90;;;;;;5064578;28;20357;-78
2023/11/06 06:27:33;;;;;;;3.30;1.48;;;6.50;99.90;;;;;;5068161;28;20044;-85
2023/11/06 06:30:20;;;;;;;4.28;1.50;;;6.50;99.90;;;;;;5058078;28;20040;-86
2023/11/06 06:33:07;;;;;;;5.25;1.80;;;6.50;99.90;;;;;;5057162;28;20041;-83
2023/11/06 06:35:55;;;;;;;3.08;1.45;;;6.50;99.90;;;;;;5067640;28;20045;-85
2023/11/06 06:38:44;;;;;;;4.05;1.77;;;6.50;99.90;;;;;;5072752;28;20054;-86
2023/11/06 06:41:32;;;;;;;6.75;1.55;;;6.60;99.90;;;;;;5068324;28;20049;-85
2023/11/06 06:44:19;;;;;;;4.57;1.65;;;6.70;99.90;;;;;;5066187;28;20740;-86
2023/11/06 06:47:06;;;;;;;6.05;2.03;;;6.70;99.90;;;;;;5072677;28;20040;-86
2023/11/06 06:49:55;;;;;;;6.15;1.60;;;6.80;99.90;;;;;;5064166;28;20040;-86
2023/11/06 06:52:45;;;;;;;4.35;1.40;;;6.90;99.90;;;;;;5075286;28;20088;-85
2023/11/06 06:55:32;;;;;;;1.92;1.30;;;6.90;99.90;;;;;;5071868;28;20081;-85
2023/11/06 06:58:21;;;;;;;4.65;1.70;;;6.90;99.90;;;;;;5067918;28;20780;-85
2023/11/06 07:01:10;;;;;;;5.40;1.42;;;7.00;99.90;;;;;;5067796;28;20059;-81
2023/11/06 07:04:00;;;;;;;21.52;9.65;;;7.20;99.90;;;;;;5062062;28;20145;-86
2023/11/06 07:06:49;;;;;;;7.55;3.90;;;7.30;99.90;;;;;;5083094;28;20041;-86
2023/11/06 07:09:39;;;;;;;13.88;5.18;;;7.50;99.90;;;;;;5063596;28;20048;-84
2023/11/06 07:12:30;;;;;;;6.32;3.30;;;7.60;99.90;;;;;;5049818;28;20057;-80
2023/11/06 07:15:22;;;;;;;7.90;2.15;;;7.70;99.90;;;;;;5060602;28;20048;-85
2023/11/06 07:18:10;;;;;;;3.53;1.50;;;7.80;99.90;;;;;;5050470;28;20327;-85
2023/11/06 07:20:58;;;;;;;7.93;1.80;;;7.70;99.90;;;;;;5068209;28;20059;-84
2023/11/06 07:23:45;;;;;;;7.10;1.75;;;7.60;99.90;;;;;;5077967;28;20044;-86
2023/11/06 07:26:32;;;;;;;5.35;2.03;;;7.50;99.90;;;;;;5073112;28;20127;-85
2023/11/06 07:29:20;;;;;;;5.97;2.03;;;7.50;99.90;;;;;;5076335;28;20037;-85
2023/11/06 07:32:10;;;;;;;4.03;1.77;;;7.50;99.90;;;;;;5074534;28;20047;-85
2023/11/06 07:34:57;;;;;;;6.38;1.58;;;7.60;99.90;;;;;;5057455;28;20059;-84
2023/11/06 07:37:45;;;;;;;7.95;1.85;;;7.70;99.90;;;;;;5074434;28;20135;-85
2023/11/06 07:40:32;;;;;;;4.82;1.90;;;8.00;61.10;;;;;;5077701;28;20049;-87
2023/11/06 07:43:20;;;;;;;11.15;1.58;;;8.20;25.70;;;;;;5058096;28;20497;-88
2023/11/06 07:46:07;;;;;;;5.15;1.45;;;8.30;1.00;;;;;;5075718;28;20159;-85
2023/11/06 07:48:54;;;;;;;4.57;1.40;;;8.30;1.00;;;;;;5075688;28;20060;-83
2023/11/06 07:51:41;;;;;;;7.88;1.50;;;8.30;1.00;;;;;;5076832;28;20178;-85
2023/11/06 07:54:29;;;;;;;2.88;1.20;;;8.30;1.00;;;;;;5073376;28;20036;-85
2023/11/06 07:57:19;;;;;;;6.72;1.58;;;8.40;1.00;;;;;;5070477;28;20348;-83
2023/11/06 08:00:13;;;;;;;6.53;1.77;;;8.50;99.90;;;;;;5075905;28;20044;-85
2023/11/06 08:03:00;;;;;;;6.13;1.63;;;8.60;99.90;;;;;;5075287;28;20064;-87
2023/11/06 08:05:48;;;;;;;4.55;1.60;;;8.70;99.90;;;;;;5071184;28;20055;-87
2023/11/06 08:08:35;;;;;;;3.88;1.10;;;8.80;99.90;;;;;;5055418;28;20357;-85
2023/11/06 08:11:25;;;;;;;2.80;1.27;;;8.90;1.00;;;;;;5073473;28;20054;-87
2023/11/06 08:14:15;;;;;;;5.25;1.45;;;9.00;99.90;;;;;;5060072;28;20040;-84
2023/11/06 08:17:05;;;;;;;9.57;1.70;;;9.10;99.90;;;;;;5075088;28;20041;-85
2023/11/06 08:19:55;;;;;;;4.68;1.35;;;9.20;1.00;;;;;;5069676;28;20045;-85
2023/11/06 08:22:43;;;;;;;3.40;1.10;;;9.20;99.90;;;;;;5058996;28;20052;-85
2023/11/06 08:25:34;;;;;;;5.32;1.40;;;9.30;99.90;;;;;;5059173;28;20044;-84
2023/11/06 08:28:23;;;;;;;5.30;1.45;;;9.50;99.90;;;;;;5059158;28;20139;-85
2023/11/06 08:31:11;;;;;;;5.32;1.35;;;9.40;99.90;;;;;;5070474;28;20071;-84
2023/11/06 08:33:58;;;;;;;6.10;1.20;;;9.20;99.90;;;;;;5075738;28;20036;-86
2023/11/06 08:36:48;;;;;;;1.67;1.08;;;9.20;99.90;;;;;;5075383;28;20048;-80
2023/11/06 08:39:39;;;;;;;7.10;1.50;;;9.20;99.90;;;;;;5072055;28;20064;-81
2023/11/06 08:42:26;;;;;;;5.78;1.20;;;9.30;99.90;;;;;;5074777;28;20040;-86
2023/11/06 08:45:16;;;;;;;6.32;1.33;;;9.40;99.90;;;;;;5064471;28;20056;-84
2023/11/06 08:48:08;;;;;;;2.40;1.00;;;9.40;99.90;;;;;;5080206;28;20716;-84
2023/11/06 08:50:59;;;;;;;3.40;1.20;;;9.50;1.00;;;;;;5069769;28;20045;-84
2023/11/06 08:53:47;;;;;;;3.42;1.10;;;9.50;1.00;;;;;;5080459;28;20048;-84
2023/11/06 08:56:34;;;;;;;7.10;1.38;;;9.60;99.90;;;;;;5069245;28;20166;-84
2023/11/06 08:59:24;;;;;;;4.97;1.30;;;9.60;99.90;;;;;;5049728;28;20051;-86
2023/11/06 09:02:11;;;;;;;5.75;1.38;;;9.70;99.90;;;;;;5069449;28;20055;-89
2023/11/06 09:05:13;;;;;;;7.30;1.10;;;9.70;92.60;;;;;;5072633;28;20037;-87
2023/11/06 09:08:08;;;;;;;4.40;1.05;;;10.10;27.70;;;;;;5057644;28;20044;-85
2023/11/06 09:11:06;;;;;;;4.75;1.40;;;10.30;1.00;;;;;;5063787;28;20059;-89
2023/11/06 09:14:03;;;;;;;3.72;1.15;;;10.40;99.90;;;;;;5053898;28;20452;-87
2023/11/06 09:16:53;;;;;;;2.70;1.02;;;10.30;99.90;;;;;;5053657;28;20063;-87
2023/11/06 09:19:40;;;;;;;3.42;1.10;;;10.30;57.50;;;;;;5074501;28;20055;-89
2023/11/06 09:22:29;;;;;;;4.82;1.20;;;10.70;1.00;;;;;;5078438;28;20431;-85
2023/11/06 09:25:26;;;;;;;3.40;1.20;;;10.80;1.00;;;;;;5055615;28;20040;-85
2023/11/06 09:28:21;;;;;;;3.63;1.02;;;10.60;1.00;;;;;;5072071;28;20045;-84
2023/11/06 09:31:08;;;;;;;6.82;1.33;;;10.30;1.00;;;;;;5076760;28;20048;-80
2023/11/06 09:33:56;;;;;;;1.75;0.85;;;10.30;99.90;;;;;;5059086;28;20055;-79
2023/11/06 09:36:44;;;;;;;2.40;0.95;;;10.30;99.90;;;;;;5074625;28;20045;-85
2023/11/06 09:39:31;;;;;;;1.92;0.90;;;10.70;99.90;;;;;;5081482;28;20046;-85
2023/11/06 09:42:22;;;;;;;5.88;1.40;;;12.20;30.80;;;;;;5071603;28;20341;-81
2023/11/06 09:45:16;;;;;;;4.38;1.20;;;12.80;99.90;;;;;;5043976;28;20147;-86
2023/11/06 10:01:37;;;;;;;;;;;;;;;;;;;;;
2023/11/06 10:30:48;;;;;;;2.28;0.90;;;11.60;99.90;;;;;;6168420;23;20159;-87
2023/11/06 10:33:59;;;;;;;1.67;0.70;;;11.70;99.90;;;;;;6255973;23;20028;-80
2023/11/06 10:37:13;;;;;;;2.97;0.98;;;11.80;99.90;;;;;;6257938;22;20370;-86
2023/11/06 10:40:06;;;;;;;1.90;0.60;;;11.50;99.90;;;;;;6254631;22;20035;-87
2023/11/06 10:42:57;;;;;;;4.78;0.75;;;11.10;99.90;;;;;;6252517;23;20024;-86
2023/11/06 10:45:49;;;;;;;1.77;0.80;;;11.10;99.90;;;;;;6252906;23;20028;-86
2023/11/06 10:48:54;;;;;;;4.60;0.90;;;11.10;99.90;;;;;;6254936;22;20024;-84
2023/11/06 10:51:46;;;;;;;2.47;1.13;;;10.90;99.90;;;;;;6252211;23;20032;-79
2023/11/06 10:54:36;;;;;;;3.35;0.90;;;10.90;99.90;;;;;;6254044;23;20291;-86
2023/11/06 10:57:25;;;;;;;5.18;1.00;;;10.90;99.90;;;;;;6256657;22;20198;-87
2023/11/06 11:00:19;;;;;;;4.55;1.05;;;10.80;99.90;;;;;;6256057;23;20032;-86
2023/11/06 11:03:08;;;;;;;5.97;0.82;;;10.90;99.90;;;;;;6254651;23;20095;-82
2023/11/06 11:05:57;;;;;;;2.42;1.17;;;10.90;99.90;;;;;;6255245;22;20031;-82
2023/11/06 11:08:47;;;;;;;2.90;1.10;;;10.90;99.90;;;;;;6249627;23;20429;-86
2023/11/06 11:11:35;;;;;;;5.53;1.35;;;11.00;99.90;;;;;;6253560;23;20051;-86
2023/11/06 11:14:25;;;;;;;1.42;0.90;;;11.10;99.90;;;;;;6254486;22;20050;-84
2023/11/06 11:17:13;;;;;;;1.77;0.90;;;11.00;99.90;;;;;;6252268;23;20027;-84
2023/11/06 11:20:09;;;;;;;4.18;1.25;;;11.00;99.90;;;;;;6253815;23;20078;-84
2023/11/06 11:23:10;;;;;;;1.35;0.70;;;11.00;99.90;;;;;;6255185;23;20444;-86
2023/11/06 11:26:01;;;;;;;3.60;0.93;;;11.00;99.90;;;;;;6252683;22;20020;-86
2023/11/06 11:28:59;;;;;;;4.63;1.13;;;11.10;99.90;;;;;;6245654;23;20060;-88
2023/11/06 11:31:49;;;;;;;2.25;1.02;;;10.90;99.90;;;;;;6243430;23;20028;-88
2023/11/06 11:34:37;;;;;;;0.70;0.70;;;10.80;99.90;;;;;;6244166;23;20094;-89
2023/11/06 11:37:27;;;;;;;1.58;0.80;;;11.00;99.90;;;;;;6247075;23;20111;-81
2023/11/06 11:40:14;;;;;;;1.30;0.82;;;11.50;99.90;;;;;;6245691;23;20460;-83
2023/11/06 11:43:36;;;;;;;3.92;1.45;;;11.80;99.90;;;;;;6248924;23;20541;-86
2023/11/06 11:46:53;;;;;;;1.75;1.00;;;11.90;99.90;;;;;;6246563;22;20028;-87
2023/11/06 11:49:50;;;;;;;3.22;0.95;;;11.80;99.90;;;;;;6246761;22;20028;-88
2023/11/06 11:52:42;;;;;;;7.03;1.17;;;11.60;99.90;;;;;;6246773;22;20024;-86
2023/11/06 11:55:34;;;;;;;1.17;0.98;;;11.50;99.90;;;;;;6248594;23;20027;-86
2023/11/06 11:58:25;;;;;;;2.38;0.82;;;11.40;99.90;;;;;;6243728;23;20028;-88
2023/11/06 12:01:16;;;;;;;2.45;0.80;;;11.60;99.90;;;;;;6249507;23;20036;-81
2023/11/06 12:05:09;;;;;;;;;;;;;;;;;;;;;
2023/11/06 12:08:25;;;;;;;1.35;0.80;;;12.90;97.90;;;;;;6242871;23;20035;-85
2023/11/06 12:11:19;;;;;;;1.95;0.68;;;12.10;52.80;;;;;;6243672;23;20024;-86
2023/11/06 12:14:11;;;;;;;1.70;0.95;;;11.80;82.90;;;;;;6243775;23;20378;-86
2023/11/06 12:17:54;;;;;;;6.28;1.42;;;11.90;93.10;;;;;;6246384;22;20027;-86
2023/11/06 12:21:06;;;;;;;2.90;0.90;;;11.90;64.00;;;;;;6154670;23;20021;-79
2023/11/06 12:24:18;;;;;;;4.05;0.88;;;11.70;55.00;;;;;;6065237;23;20050;-86
2023/11/06 12:27:13;;;;;;;1.65;0.82;;;11.70;71.50;;;;;;6095841;23;20049;-85
2023/11/06 12:30:46;;;;;;;4.15;1.17;;;11.50;62.90;;;;;;6151600;23;20627;-80
2023/11/06 12:34:12;;;;;;;24.23;2.17;;;11.60;45.80;;;;;;6108406;23;20671;-87
2023/11/06 12:37:33;;;;;;;;;;;;;;;;;;;;;
2023/11/06 12:40:38;;;;;;;;;;;;;;;;;;;;;
2023/11/06 12:44:02;;;;;;;0.60;0.60;;;11.50;56.60;;;;;;6019371;23;20034;-85
2023/11/06 12:47:03;;;;;;;0.67;0.67;;;11.40;77.40;;;;;;6122835;23;20037;-83
2023/11/06 12:49:57;;;;;;;0.60;0.60;;;11.40;58.40;;;;;;6128995;23;20251;-86
2023/11/06 12:53:07;;;;;;;0.90;0.65;;;11.30;77.00;;;;;;6239943;22;20024;-81
2023/11/06 12:56:10;;;;;;;0.57;0.50;;;11.40;97.90;;;;;;6246270;22;20031;-87
2023/11/06 12:59:04;;;;;;;0.68;0.60;;;11.30;67.80;;;;;;6245906;22;20020;-83
2023/11/06 13:01:52;;;;;;;0.65;0.60;;;11.20;94.80;;;;;;6245853;22;20024;-83
2023/11/06 13:04:44;;;;;;;1.35;0.88;;;11.20;93.80;;;;;;6247338;22;20422;-87
2023/11/06 13:08:01;;;;;;;0.70;0.70;;;11.30;99.90;;;;;;6151827;23;20065;-86
2023/11/06 13:10:58;;;;;;;1.42;0.55;;;11.20;99.90;;;;;;6173467;22;20024;-85
2023/11/06 13:13:54;;;;;;;1.38;0.60;;;11.30;99.90;;;;;;6245039;23;20138;-82
2023/11/06 13:17:04;;;;;;;;;;;;;;;;;;;;;
2023/11/06 13:20:03;;;;;;;1.63;0.82;;;11.30;94.90;;;;;;6244018;23;20024;-85
2023/11/06 13:23:29;;;;;;;0.60;0.60;;;11.50;94.20;;;;;;6244803;23;20051;-85
2023/11/06 13:26:47;;;;;;;;;;;;;;;;;;;;;
2023/11/06 13:30:11;;;;;;;2.72;0.80;;;11.60;51.30;;;;;;6244794;23;20020;-84
2023/11/06 13:33:48;;;;;;;;;;;;;;;;;;;;;
2023/11/06 13:36:48;;;;;;;1.65;0.70;;;11.80;49.10;;;;;;6243865;23;20020;-80
2023/11/06 13:39:43;;;;;;;1.15;0.70;;;11.50;33.10;;;;;;6245875;23;20028;-80
2023/11/06 13:42:32;;;;;;;0.63;0.63;;;11.30;32.00;;;;;;6244431;23;20047;-86
2023/11/06 13:49:45;;;;;;;3.75;1.38;;;11.10;55.10;;;;;;6204944;22;20366;-86
2023/11/06 13:52:42;;;;;;;2.00;1.20;;;11.20;62.60;;;;;;6243690;23;20031;-85
2023/11/06 14:00:33;;;;;;;;;;;;;;;;;;;;;
2023/11/06 14:03:37;;;;;;;5.97;0.80;;;11.20;58.90;;;;;;6245582;23;20081;-81
2023/11/06 14:11:55;;;;;;;;;;;;;;;;;;;;;
2023/11/06 14:15:27;;;;;;;1.35;0.93;;;11.30;51.90;;;;;;6149654;23;20319;-81
2023/11/06 14:18:29;;;;;;;1.13;1.02;;;11.40;44.30;;;;;;6189274;23;20139;-81
2023/11/06 14:21:24;;;;;;;3.58;1.00;;;11.30;31.70;;;;;;6246314;23;20086;-83
2023/11/06 14:28:00;;;;;;;1.48;0.80;;;11.20;42.90;;;;;;6181396;23;20705;-86
2023/11/06 14:31:09;;;;;;;2.58;1.00;;;11.30;26.70;;;;;;6186378;22;20036;-85
2023/11/06 14:34:23;;;;;;;1.58;0.80;;;11.20;46.80;;;;;;6151247;23;20099;-83
2023/11/06 14:37:52;;;;;;;2.58;0.93;;;11.30;19.00;;;;;;6135292;23;20025;-85
2023/11/06 14:41:22;;;;;;;;;;;;;;;;;;;;;
2023/11/06 14:44:19;;;;;;;3.33;1.27;;;11.40;14.80;;;;;;6149032;23;20033;-86
2023/11/06 14:47:30;;;;;;;0.88;0.88;;;12.40;6.60;;;;;;6242412;23;20020;-85
2023/11/06 14:50:59;;;;;;;;;;;;;;;;;;;;;
2023/11/06 14:54:20;;;;;;;;;;;;;;;;;;;;;
2023/11/06 14:57:25;;;;;;;3.22;1.02;;;11.10;1.00;;;;;;6203541;22;20042;-86
2023/11/06 15:00:42;;;;;;;1.20;1.10;;;10.90;29.70;;;;;;6246198;22;20024;-85
2023/11/06 15:03:33;;;;;;;0.95;0.95;;;10.80;46.10;;;;;;6247340;23;20441;-85
2023/11/06 15:07:25;;;;;;;;;;;;;;;;;;;;;
2023/11/06 15:10:33;;;;;;;2.80;0.80;;;10.70;99.90;;;;;;6152581;23;20347;-86
2023/11/06 15:14:22;;;;;;;1.42;0.82;;;10.60;99.90;;;;;;6152294;23;20031;-86
2023/11/06 15:17:40;;;;;;;1.85;1.15;;;10.60;99.90;;;;;;6131590;23;20040;-83
2023/11/06 15:20:43;;;;;;;1.25;0.90;;;10.60;99.90;;;;;;6244256;23;20103;-86
2023/11/06 15:27:58;;;;;;;;;;;;;;;;;;;;;
2023/11/06 15:31:00;;;;;;;3.72;0.82;;;10.40;99.90;;;;;;6245839;23;20032;-84
2023/11/06 15:33:49;;;;;;;1.25;0.80;;;10.30;99.90;;;;;;6246433;23;20024;-80
2023/11/06 15:36:37;;;;;;;1.50;0.90;;;10.20;99.90;;;;;;6245053;23;20031;-79
2023/11/06 15:39:25;;;;;;;0.95;0.88;;;10.20;99.90;;;;;;6248226;23;20091;-81
2023/11/06 15:42:12;;;;;;;0.85;0.70;;;10.10;99.90;;;;;;6247500;23;20028;-84
2023/11/06 15:45:00;;;;;;;1.95;0.85;;;10.10;99.90;;;;;;6246603;22;20303;-85
2023/11/06 15:47:48;;;;;;;0.70;0.70;;;10.00;99.90;;;;;;6244230;23;20294;-81
2023/11/06 15:50:39;;;;;;;1.23;1.10;;;9.90;99.90;;;;;;6245570;23;20330;-87
2023/11/06 15:53:34;;;;;;;1.55;1.00;;;10.00;99.90;;;;;;6226586;23;20166;-86
2023/11/06 15:56:23;;;;;;;2.92;1.73;;;9.90;99.90;;;;;;6250982;22;20020;-86
2023/11/06 15:59:11;;;;;;;1.60;1.20;;;9.90;99.90;;;;;;6249086;22;20107;-85
2023/11/06 16:02:02;;;;;;;1.15;0.90;;;9.90;99.90;;;;;;6245302;23;20024;-86
2023/11/06 16:04:50;;;;;;;1.38;0.77;;;9.90;99.90;;;;;;6247125;22;20034;-86
2023/11/06 16:07:37;;;;;;;0.70;0.70;;;9.90;1.00;;;;;;6247200;22;20485;-85
2023/11/06 16:10:25;;;;;;;1.02;0.90;;;9.80;1.00;;;;;;6246195;23;20060;-83
2023/11/06 16:13:17;;;;;;;1.48;1.13;;;9.60;11.00;;;;;;6244344;23;20023;-85
2023/11/06 16:16:08;;;;;;;2.15;1.45;;;9.40;99.90;;;;;;6247425;23;20020;-78
2023/11/06 16:18:58;;;;;;;2.45;1.25;;;9.30;99.90;;;;;;6250671;23;20024;-85
2023/11/06 16:21:48;;;;;;;3.05;0.93;;;9.20;1.00;;;;;;6250832;23;20308;-84
2023/11/06 16:24:35;;;;;;;1.67;1.30;;;9.20;99.90;;;;;;6248289;23;20088;-86
2023/11/06 16:27:26;;;;;;;2.58;1.50;;;9.10;99.90;;;;;;6248602;23;20031;-83
2023/11/06 16:30:14;;;;;;;3.55;1.20;;;9.10;1.00;;;;;;6248308;23;20039;-87